<?xml version="1.0" encoding="UTF-8" standalone="no" ?>
<gpx xmlns="http://www.topografix.com/GPX/1/1" xmlns:xsi="http://www.w3.org/2001/XMLSchema-instance" xsi:schemaLocation="http://www.topografix.com/GPX/1/1 http://www.topografix.com/GPX/1/1/gpx.xsd" version="1.1" creator="VisuGPX - https://www.visugpx.com">
  <metadata>
    <name>11506485-rando cheval Caro Laura Alex Manche</name>
  </metadata>
  <trk>
    <name><![CDATA[11506485-rando cheval Caro Laura Alex Manche]]></name>
    <trkseg>
      <trkpt lat="49.26598" lon="-1.15371">
        <ele>32</ele>
        <time>2020-06-19T12:32:51Z</time>
      </trkpt>
      <trkpt lat="49.26665" lon="-1.15185">
        <ele>31</ele>
        <time>2020-06-19T12:34:42Z</time>
      </trkpt>
      <trkpt lat="49.26767" lon="-1.15223">
        <ele>31</ele>
        <time>2020-06-19T12:36:06Z</time>
      </trkpt>
      <trkpt lat="49.26919" lon="-1.14599">
        <ele>10</ele>
        <time>2020-06-19T12:41:54Z</time>
      </trkpt>
      <trkpt lat="49.26803" lon="-1.14499">
        <ele>13</ele>
        <time>2020-06-19T12:43:41Z</time>
      </trkpt>
      <trkpt lat="49.26774" lon="-1.14492">
        <ele>15</ele>
        <time>2020-06-19T12:44:04Z</time>
      </trkpt>
      <trkpt lat="49.26664" lon="-1.14388">
        <ele>27</ele>
        <time>2020-06-19T12:45:48Z</time>
      </trkpt>
      <trkpt lat="49.26595" lon="-1.14344">
        <ele>26</ele>
        <time>2020-06-19T12:46:47Z</time>
      </trkpt>
      <trkpt lat="49.26717" lon="-1.13884">
        <ele>12</ele>
        <time>2020-06-19T12:51:07Z</time>
      </trkpt>
      <trkpt lat="49.26636" lon="-1.13866">
        <ele>14</ele>
        <time>2020-06-19T12:52:12Z</time>
      </trkpt>
      <trkpt lat="49.26436" lon="-1.13801">
        <ele>4</ele>
        <time>2020-06-19T12:54:56Z</time>
      </trkpt>
      <trkpt lat="49.26324" lon="-1.13751">
        <ele>2</ele>
        <time>2020-06-19T12:56:30Z</time>
      </trkpt>
      <trkpt lat="49.26266" lon="-1.13727">
        <ele>4</ele>
        <time>2020-06-19T12:57:18Z</time>
      </trkpt>
      <trkpt lat="49.26237" lon="-1.13704">
        <ele>4</ele>
        <time>2020-06-19T12:57:44Z</time>
      </trkpt>
      <trkpt lat="49.262" lon="-1.13684">
        <ele>4</ele>
        <time>2020-06-19T12:58:15Z</time>
      </trkpt>
      <trkpt lat="49.26165" lon="-1.13619">
        <ele>4</ele>
        <time>2020-06-19T12:58:59Z</time>
      </trkpt>
      <trkpt lat="49.26128" lon="-1.13502">
        <ele>4</ele>
        <time>2020-06-19T13:00:07Z</time>
      </trkpt>
      <trkpt lat="49.2609" lon="-1.13433">
        <ele>3</ele>
        <time>2020-06-19T13:00:54Z</time>
      </trkpt>
      <trkpt lat="49.26014" lon="-1.13375">
        <ele>4</ele>
        <time>2020-06-19T13:02:02Z</time>
      </trkpt>
      <trkpt lat="49.25968" lon="-1.13359">
        <ele>4</ele>
        <time>2020-06-19T13:02:40Z</time>
      </trkpt>
      <trkpt lat="49.2594" lon="-1.13392">
        <ele>5</ele>
        <time>2020-06-19T13:03:08Z</time>
      </trkpt>
      <trkpt lat="49.25905" lon="-1.13348">
        <ele>4</ele>
        <time>2020-06-19T13:03:45Z</time>
      </trkpt>
      <trkpt lat="49.25891" lon="-1.13287">
        <ele>3</ele>
        <time>2020-06-19T13:04:18Z</time>
      </trkpt>
      <trkpt lat="49.25887" lon="-1.13199">
        <ele>2</ele>
        <time>2020-06-19T13:05:04Z</time>
      </trkpt>
      <trkpt lat="49.25908" lon="-1.1315">
        <ele>1</ele>
        <time>2020-06-19T13:05:35Z</time>
      </trkpt>
      <trkpt lat="49.25927" lon="-1.12933">
        <ele>2</ele>
        <time>2020-06-19T13:07:30Z</time>
      </trkpt>
      <trkpt lat="49.25948" lon="-1.12719">
        <ele>1</ele>
        <time>2020-06-19T13:09:23Z</time>
      </trkpt>
      <trkpt lat="49.25962" lon="-1.1256">
        <ele>2</ele>
        <time>2020-06-19T13:10:46Z</time>
      </trkpt>
      <trkpt lat="49.26001" lon="-1.12461">
        <ele>2</ele>
        <time>2020-06-19T13:11:47Z</time>
      </trkpt>
      <trkpt lat="49.2613" lon="-1.12285">
        <ele>1</ele>
        <time>2020-06-19T13:14:05Z</time>
      </trkpt>
      <trkpt lat="49.26277" lon="-1.12069">
        <ele>1</ele>
        <time>2020-06-19T13:16:48Z</time>
      </trkpt>
      <trkpt lat="49.26336" lon="-1.11863">
        <ele>2</ele>
        <time>2020-06-19T13:18:46Z</time>
      </trkpt>
      <trkpt lat="49.26363" lon="-1.11594">
        <ele>1</ele>
        <time>2020-06-19T13:21:08Z</time>
      </trkpt>
      <trkpt lat="49.264" lon="-1.11465">
        <ele>2</ele>
        <time>2020-06-19T13:22:22Z</time>
      </trkpt>
      <trkpt lat="49.26501" lon="-1.11271">
        <ele>3</ele>
        <time>2020-06-19T13:24:31Z</time>
      </trkpt>
      <trkpt lat="49.26645" lon="-1.10966">
        <ele>1</ele>
        <time>2020-06-19T13:27:48Z</time>
      </trkpt>
      <trkpt lat="49.26754" lon="-1.10791">
        <ele>1</ele>
        <time>2020-06-19T13:29:54Z</time>
      </trkpt>
      <trkpt lat="49.26904" lon="-1.10835">
        <ele>2</ele>
        <time>2020-06-19T13:31:57Z</time>
      </trkpt>
      <trkpt lat="49.26928" lon="-1.11234">
        <ele>1</ele>
        <time>2020-06-19T13:35:26Z</time>
      </trkpt>
      <trkpt lat="49.2697" lon="-1.11926">
        <ele>3</ele>
        <time>2020-06-19T13:41:29Z</time>
      </trkpt>
      <trkpt lat="49.27053" lon="-1.11972">
        <ele>1</ele>
        <time>2020-06-19T13:42:40Z</time>
      </trkpt>
      <trkpt lat="49.27173" lon="-1.11968">
        <ele>1</ele>
        <time>2020-06-19T13:44:16Z</time>
      </trkpt>
      <trkpt lat="49.27314" lon="-1.11934">
        <ele>1</ele>
        <time>2020-06-19T13:46:10Z</time>
      </trkpt>
      <trkpt lat="49.27389" lon="-1.11999">
        <ele>1</ele>
        <time>2020-06-19T13:47:19Z</time>
      </trkpt>
      <trkpt lat="49.27434" lon="-1.1193">
        <ele>1</ele>
        <time>2020-06-19T13:48:10Z</time>
      </trkpt>
      <trkpt lat="49.27447" lon="-1.11883">
        <ele>1</ele>
        <time>2020-06-19T13:48:37Z</time>
      </trkpt>
      <trkpt lat="49.27424" lon="-1.11813">
        <ele>1</ele>
        <time>2020-06-19T13:49:18Z</time>
      </trkpt>
      <trkpt lat="49.2742" lon="-1.11804">
        <ele>1</ele>
        <time>2020-06-19T13:49:23Z</time>
      </trkpt>
      <trkpt lat="49.27466" lon="-1.11744">
        <ele>2.8</ele>
        <time>2020-06-19T13:50:12Z</time>
      </trkpt>
      <trkpt lat="49.27498" lon="-1.11538">
        <ele>2</ele>
        <time>2020-06-19T13:52:02Z</time>
      </trkpt>
      <trkpt lat="49.2754" lon="-1.11542">
        <ele>3</ele>
        <time>2020-06-19T13:52:36Z</time>
      </trkpt>
      <trkpt lat="49.27579" lon="-1.11493">
        <ele>5</ele>
        <time>2020-06-19T13:53:16Z</time>
      </trkpt>
      <trkpt lat="49.27566" lon="-1.11398">
        <ele>10</ele>
        <time>2020-06-19T13:54:07Z</time>
      </trkpt>
      <trkpt lat="49.27618" lon="-1.11394">
        <ele>10</ele>
        <time>2020-06-19T13:54:49Z</time>
      </trkpt>
      <trkpt lat="49.27653" lon="-1.11369">
        <ele>10</ele>
        <time>2020-06-19T13:55:20Z</time>
      </trkpt>
      <trkpt lat="49.27747" lon="-1.11383">
        <ele>6</ele>
        <time>2020-06-19T13:56:35Z</time>
      </trkpt>
      <trkpt lat="49.27863" lon="-1.11501">
        <ele>2</ele>
        <time>2020-06-19T13:58:27Z</time>
      </trkpt>
      <trkpt lat="49.27978" lon="-1.11625">
        <ele>3</ele>
        <time>2020-06-19T14:00:19Z</time>
      </trkpt>
      <trkpt lat="49.28105" lon="-1.11714">
        <ele>3</ele>
        <time>2020-06-19T14:02:11Z</time>
      </trkpt>
      <trkpt lat="49.28155" lon="-1.11728">
        <ele>2</ele>
        <time>2020-06-19T14:02:52Z</time>
      </trkpt>
      <trkpt lat="49.28204" lon="-1.11714">
        <ele>3</ele>
        <time>2020-06-19T14:03:32Z</time>
      </trkpt>
      <trkpt lat="49.28226" lon="-1.11665">
        <ele>4</ele>
        <time>2020-06-19T14:04:03Z</time>
      </trkpt>
      <trkpt lat="49.28273" lon="-1.11692">
        <ele>3</ele>
        <time>2020-06-19T14:04:43Z</time>
      </trkpt>
      <trkpt lat="49.28552" lon="-1.11625">
        <ele>2</ele>
        <time>2020-06-19T14:08:29Z</time>
      </trkpt>
      <trkpt lat="49.2873" lon="-1.11566">
        <ele>2</ele>
        <time>2020-06-19T14:10:55Z</time>
      </trkpt>
      <trkpt lat="49.29064" lon="-1.11506">
        <ele>4</ele>
        <time>2020-06-19T14:15:24Z</time>
      </trkpt>
      <trkpt lat="49.29047" lon="-1.11721">
        <ele>1</ele>
        <time>2020-06-19T14:17:17Z</time>
      </trkpt>
      <trkpt lat="49.28907" lon="-1.11982">
        <ele>2</ele>
        <time>2020-06-19T14:20:14Z</time>
      </trkpt>
      <trkpt lat="49.29055" lon="-1.12192">
        <ele>3</ele>
        <time>2020-06-19T14:22:55Z</time>
      </trkpt>
      <trkpt lat="49.29051" lon="-1.1221">
        <ele>3</ele>
        <time>2020-06-19T14:23:05Z</time>
      </trkpt>
      <trkpt lat="49.29179" lon="-1.12282">
        <ele>2</ele>
        <time>2020-06-19T14:24:54Z</time>
      </trkpt>
      <trkpt lat="49.29428" lon="-1.12433">
        <ele>1</ele>
        <time>2020-06-19T14:28:29Z</time>
      </trkpt>
      <trkpt lat="49.29753" lon="-1.12634">
        <ele>2</ele>
        <time>2020-06-19T14:33:09Z</time>
      </trkpt>
      <trkpt lat="49.30081" lon="-1.12825">
        <ele>2</ele>
        <time>2020-06-19T14:37:50Z</time>
      </trkpt>
      <trkpt lat="49.30401" lon="-1.13016">
        <ele>2</ele>
        <time>2020-06-19T14:42:25Z</time>
      </trkpt>
      <trkpt lat="49.30602" lon="-1.13134">
        <ele>5</ele>
        <time>2020-06-19T14:45:18Z</time>
      </trkpt>
      <trkpt lat="49.30709" lon="-1.13137">
        <ele>6</ele>
        <time>2020-06-19T14:46:43Z</time>
      </trkpt>
      <trkpt lat="49.30767" lon="-1.13105">
        <ele>6</ele>
        <time>2020-06-19T14:47:33Z</time>
      </trkpt>
      <trkpt lat="49.30768" lon="-1.13052">
        <ele>7</ele>
        <time>2020-06-19T14:48:00Z</time>
      </trkpt>
      <trkpt lat="49.30792" lon="-1.13029">
        <ele>6</ele>
        <time>2020-06-19T14:48:23Z</time>
      </trkpt>
      <trkpt lat="49.30798" lon="-1.12978">
        <ele>8</ele>
        <time>2020-06-19T14:48:50Z</time>
      </trkpt>
      <trkpt lat="49.30849" lon="-1.12971">
        <ele>6</ele>
        <time>2020-06-19T14:49:31Z</time>
      </trkpt>
      <trkpt lat="49.30866" lon="-1.13013">
        <ele>3</ele>
        <time>2020-06-19T14:49:57Z</time>
      </trkpt>
      <trkpt lat="49.30882" lon="-1.12957">
        <ele>5</ele>
        <time>2020-06-19T14:50:29Z</time>
      </trkpt>
      <trkpt lat="49.30949" lon="-1.1285">
        <ele>7</ele>
        <time>2020-06-19T14:51:46Z</time>
      </trkpt>
      <trkpt lat="49.31055" lon="-1.12646">
        <ele>5</ele>
        <time>2020-06-19T14:54:02Z</time>
      </trkpt>
      <trkpt lat="49.31359" lon="-1.11939">
        <ele>2</ele>
        <time>2020-06-19T15:01:24Z</time>
      </trkpt>
      <trkpt lat="49.31799" lon="-1.10923">
        <ele>3</ele>
        <time>2020-06-19T15:12:01Z</time>
      </trkpt>
      <trkpt lat="49.32073" lon="-1.11163">
        <ele>2</ele>
        <time>2020-06-19T15:16:14Z</time>
      </trkpt>
      <trkpt lat="49.32146" lon="-1.11105">
        <ele>1</ele>
        <time>2020-06-19T15:17:20Z</time>
      </trkpt>
      <trkpt lat="49.32222" lon="-1.10923">
        <ele>2</ele>
        <time>2020-06-19T15:19:12Z</time>
      </trkpt>
      <trkpt lat="49.32262" lon="-1.10768">
        <ele>3</ele>
        <time>2020-06-19T15:20:39Z</time>
      </trkpt>
      <trkpt lat="49.32248" lon="-1.10689">
        <ele>2</ele>
        <time>2020-06-19T15:21:22Z</time>
      </trkpt>
      <trkpt lat="49.32246" lon="-1.10645">
        <ele>2</ele>
        <time>2020-06-19T15:21:45Z</time>
      </trkpt>
      <trkpt lat="49.32167" lon="-1.10458">
        <ele>2</ele>
        <time>2020-06-19T15:23:41Z</time>
      </trkpt>
      <trkpt lat="49.32133" lon="-1.10384">
        <ele>2</ele>
        <time>2020-06-19T15:24:29Z</time>
      </trkpt>
      <trkpt lat="49.32109" lon="-1.10328">
        <ele>3</ele>
        <time>2020-06-19T15:25:04Z</time>
      </trkpt>
      <trkpt lat="49.32091" lon="-1.10236">
        <ele>3</ele>
        <time>2020-06-19T15:25:54Z</time>
      </trkpt>
      <trkpt lat="49.31957" lon="-1.09976">
        <ele>6</ele>
        <time>2020-06-19T15:28:47Z</time>
      </trkpt>
      <trkpt lat="49.31984" lon="-1.09942">
        <ele>5</ele>
        <time>2020-06-19T15:29:15Z</time>
      </trkpt>
      <trkpt lat="49.32079" lon="-1.10122">
        <ele>3</ele>
        <time>2020-06-19T15:31:16Z</time>
      </trkpt>
      <trkpt lat="49.32107" lon="-1.101">
        <ele>3</ele>
        <time>2020-06-19T15:31:41Z</time>
      </trkpt>
      <trkpt lat="49.32148" lon="-1.10219">
        <ele>3</ele>
        <time>2020-06-19T15:32:51Z</time>
      </trkpt>
      <trkpt lat="49.32186" lon="-1.10328">
        <ele>2</ele>
        <time>2020-06-19T15:33:56Z</time>
      </trkpt>
      <trkpt lat="49.32201" lon="-1.10375">
        <ele>1</ele>
        <time>2020-06-19T15:34:23Z</time>
      </trkpt>
      <trkpt lat="49.32288" lon="-1.10561">
        <ele>3.5</ele>
        <time>2020-06-19T15:36:22Z</time>
      </trkpt>
      <trkpt lat="49.32316" lon="-1.10674">
        <ele>2</ele>
        <time>2020-06-19T15:37:25Z</time>
      </trkpt>
      <trkpt lat="49.32475" lon="-1.11019">
        <ele>1</ele>
        <time>2020-06-19T15:41:06Z</time>
      </trkpt>
      <trkpt lat="49.3261" lon="-1.11217">
        <ele>3.9</ele>
        <time>2020-06-19T15:43:35Z</time>
      </trkpt>
      <trkpt lat="49.3268" lon="-1.11252">
        <ele>1</ele>
        <time>2020-06-19T15:44:34Z</time>
      </trkpt>
      <trkpt lat="49.32825" lon="-1.11293">
        <ele>1</ele>
        <time>2020-06-19T15:46:32Z</time>
      </trkpt>
      <trkpt lat="49.33125" lon="-1.11349">
        <ele>1</ele>
        <time>2020-06-19T15:50:34Z</time>
      </trkpt>
      <trkpt lat="49.33507" lon="-1.11421">
        <ele>1</ele>
        <time>2020-06-19T15:55:43Z</time>
      </trkpt>
      <trkpt lat="49.33688" lon="-1.11455">
        <ele>2.5</ele>
        <time>2020-06-19T15:58:09Z</time>
      </trkpt>
      <trkpt lat="49.33671" lon="-1.11412">
        <ele>1</ele>
        <time>2020-06-19T15:58:35Z</time>
      </trkpt>
      <trkpt lat="49.33665" lon="-1.11376">
        <ele>1</ele>
        <time>2020-06-19T15:58:54Z</time>
      </trkpt>
      <trkpt lat="49.338" lon="-1.10907">
        <ele>1</ele>
        <time>2020-06-19T16:03:22Z</time>
      </trkpt>
      <trkpt lat="49.33787" lon="-1.10874">
        <ele>1</ele>
        <time>2020-06-19T16:03:42Z</time>
      </trkpt>
      <trkpt lat="49.33795" lon="-1.10404">
        <ele>2</ele>
        <time>2020-06-19T16:07:47Z</time>
      </trkpt>
      <trkpt lat="49.3384" lon="-1.09934">
        <ele>14</ele>
        <time>2020-06-19T16:11:55Z</time>
      </trkpt>
      <trkpt lat="49.33864" lon="-1.09554">
        <ele>14</ele>
        <time>2020-06-19T16:15:14Z</time>
      </trkpt>
      <trkpt lat="49.33882" lon="-1.09404">
        <ele>14</ele>
        <time>2020-06-19T16:16:34Z</time>
      </trkpt>
      <trkpt lat="49.33886" lon="-1.09222">
        <ele>15</ele>
        <time>2020-06-19T16:18:09Z</time>
      </trkpt>
      <trkpt lat="49.33907" lon="-1.09085">
        <ele>15</ele>
        <time>2020-06-19T16:19:22Z</time>
      </trkpt>
      <trkpt lat="49.33931" lon="-1.08989">
        <ele>17</ele>
        <time>2020-06-19T16:20:16Z</time>
      </trkpt>
      <trkpt lat="49.33965" lon="-1.08982">
        <ele>18</ele>
        <time>2020-06-19T16:20:43Z</time>
      </trkpt>
      <trkpt lat="49.33972" lon="-1.09007">
        <ele>18</ele>
        <time>2020-06-19T16:20:57Z</time>
      </trkpt>
      <trkpt lat="49.34038" lon="-1.08953">
        <ele>19</ele>
        <time>2020-06-19T16:21:57Z</time>
      </trkpt>
      <trkpt lat="49.34221" lon="-1.08839">
        <ele>20</ele>
        <time>2020-06-19T16:24:35Z</time>
      </trkpt>
      <trkpt lat="49.34487" lon="-1.08727">
        <ele>18</ele>
        <time>2020-06-19T16:28:16Z</time>
      </trkpt>
      <trkpt lat="49.34535" lon="-1.08711">
        <ele>17</ele>
        <time>2020-06-19T16:28:56Z</time>
      </trkpt>
      <trkpt lat="49.34589" lon="-1.08659">
        <ele>17</ele>
        <time>2020-06-19T16:29:47Z</time>
      </trkpt>
      <trkpt lat="49.34687" lon="-1.08603">
        <ele>16</ele>
        <time>2020-06-19T16:31:10Z</time>
      </trkpt>
      <trkpt lat="49.34721" lon="-1.08565">
        <ele>16</ele>
        <time>2020-06-19T16:31:44Z</time>
      </trkpt>
      <trkpt lat="49.34709" lon="-1.08514">
        <ele>18</ele>
        <time>2020-06-19T16:32:12Z</time>
      </trkpt>
      <trkpt lat="49.34933" lon="-1.08319">
        <ele>17</ele>
        <time>2020-06-19T16:35:39Z</time>
      </trkpt>
      <trkpt lat="49.34962" lon="-1.08437">
        <ele>15</ele>
        <time>2020-06-19T16:36:44Z</time>
      </trkpt>
      <trkpt lat="49.35103" lon="-1.08442">
        <ele>15</ele>
        <time>2020-06-19T16:38:37Z</time>
      </trkpt>
      <trkpt lat="49.35186" lon="-1.08417">
        <ele>16</ele>
        <time>2020-06-19T16:39:45Z</time>
      </trkpt>
      <trkpt lat="49.35225" lon="-1.08534">
        <ele>15</ele>
        <time>2020-06-19T16:40:54Z</time>
      </trkpt>
      <trkpt lat="49.35261" lon="-1.08545">
        <ele>16</ele>
        <time>2020-06-19T16:41:23Z</time>
      </trkpt>
      <trkpt lat="49.35568" lon="-1.08424">
        <ele>20</ele>
        <time>2020-06-19T16:45:37Z</time>
      </trkpt>
      <trkpt lat="49.35797" lon="-1.08357">
        <ele>18</ele>
        <time>2020-06-19T16:48:43Z</time>
      </trkpt>
      <trkpt lat="49.35802" lon="-1.0833">
        <ele>18</ele>
        <time>2020-06-19T16:48:58Z</time>
      </trkpt>
      <trkpt lat="49.35958" lon="-1.08269">
        <ele>18</ele>
        <time>2020-06-19T16:51:07Z</time>
      </trkpt>
      <trkpt lat="49.35904" lon="-1.08022">
        <ele>18</ele>
        <time>2020-06-19T16:53:23Z</time>
      </trkpt>
      <trkpt lat="49.35857" lon="-1.07769">
        <ele>19</ele>
        <time>2020-06-19T16:55:40Z</time>
      </trkpt>
      <trkpt lat="49.35816" lon="-1.07616">
        <ele>21</ele>
        <time>2020-06-19T16:57:06Z</time>
      </trkpt>
      <trkpt lat="49.35737" lon="-1.07457">
        <ele>23</ele>
        <time>2020-06-19T16:58:51Z</time>
      </trkpt>
      <trkpt lat="49.3571" lon="-1.07356">
        <ele>24</ele>
        <time>2020-06-19T16:59:48Z</time>
      </trkpt>
      <trkpt lat="49.35553" lon="-1.07441">
        <ele>23</ele>
        <time>2020-06-19T17:02:01Z</time>
      </trkpt>
      <trkpt lat="49.35507" lon="-1.07224">
        <ele>26</ele>
        <time>2020-06-19T17:04:00Z</time>
      </trkpt>
      <trkpt lat="49.35488" lon="-1.07069">
        <ele>28</ele>
        <time>2020-06-19T17:05:22Z</time>
      </trkpt>
      <trkpt lat="49.35466" lon="-1.06916">
        <ele>27</ele>
        <time>2020-06-19T17:06:44Z</time>
      </trkpt>
      <trkpt lat="49.35406" lon="-1.06362">
        <ele>29</ele>
        <time>2020-06-19T17:11:37Z</time>
      </trkpt>
      <trkpt lat="49.35384" lon="-1.05911">
        <ele>30</ele>
        <time>2020-06-19T17:15:33Z</time>
      </trkpt>
      <trkpt lat="49.35502" lon="-1.05867">
        <ele>32</ele>
        <time>2020-06-19T17:17:10Z</time>
      </trkpt>
      <trkpt lat="49.35713" lon="-1.05779">
        <ele>30</ele>
        <time>2020-06-19T17:20:05Z</time>
      </trkpt>
      <trkpt lat="49.35922" lon="-1.05723">
        <ele>28</ele>
        <time>2020-06-19T17:22:55Z</time>
      </trkpt>
      <trkpt lat="49.35911" lon="-1.05647">
        <ele>27</ele>
        <time>2020-06-19T17:23:35Z</time>
      </trkpt>
      <trkpt lat="49.35911" lon="-1.05506">
        <ele>28</ele>
        <time>2020-06-19T17:24:49Z</time>
      </trkpt>
      <trkpt lat="49.35949" lon="-1.05221">
        <ele>28</ele>
        <time>2020-06-19T17:27:21Z</time>
      </trkpt>
      <trkpt lat="49.36001" lon="-1.05073">
        <ele>30</ele>
        <time>2020-06-19T17:28:48Z</time>
      </trkpt>
      <trkpt lat="49.35993" lon="-1.04936">
        <ele>29</ele>
        <time>2020-06-19T17:30:00Z</time>
      </trkpt>
      <trkpt lat="49.36012" lon="-1.04765">
        <ele>29</ele>
        <time>2020-06-19T17:31:30Z</time>
      </trkpt>
      <trkpt lat="49.36031" lon="-1.04521">
        <ele>29</ele>
        <time>2020-06-19T17:33:39Z</time>
      </trkpt>
      <trkpt lat="49.36033" lon="-1.04455">
        <ele>29</ele>
        <time>2020-06-19T17:34:13Z</time>
      </trkpt>
      <trkpt lat="49.36006" lon="-1.04285">
        <ele>29</ele>
        <time>2020-06-19T17:35:44Z</time>
      </trkpt>
      <trkpt lat="49.35971" lon="-1.03996">
        <ele>30</ele>
        <time>2020-06-19T17:38:18Z</time>
      </trkpt>
      <trkpt lat="49.35984" lon="-1.0374">
        <ele>30</ele>
        <time>2020-06-19T17:40:32Z</time>
      </trkpt>
      <trkpt lat="49.35968" lon="-1.03581">
        <ele>31</ele>
        <time>2020-06-19T17:41:55Z</time>
      </trkpt>
      <trkpt lat="49.35971" lon="-1.03455">
        <ele>30</ele>
        <time>2020-06-19T17:43:01Z</time>
      </trkpt>
      <trkpt lat="49.35993" lon="-1.03278">
        <ele>30</ele>
        <time>2020-06-19T17:44:35Z</time>
      </trkpt>
      <trkpt lat="49.35948" lon="-1.03036">
        <ele>28</ele>
        <time>2020-06-19T17:46:46Z</time>
      </trkpt>
      <trkpt lat="49.35896" lon="-1.02921">
        <ele>27</ele>
        <time>2020-06-19T17:47:59Z</time>
      </trkpt>
      <trkpt lat="49.35942" lon="-1.02697">
        <ele>26</ele>
        <time>2020-06-19T17:50:02Z</time>
      </trkpt>
      <trkpt lat="49.35999" lon="-1.02542">
        <ele>25</ele>
        <time>2020-06-19T17:51:35Z</time>
      </trkpt>
      <trkpt lat="49.36076" lon="-1.02372">
        <ele>24</ele>
        <time>2020-06-19T17:53:23Z</time>
      </trkpt>
      <trkpt lat="49.35999" lon="-1.02297">
        <ele>26</ele>
        <time>2020-06-19T17:54:36Z</time>
      </trkpt>
      <trkpt lat="49.35942" lon="-1.02242">
        <ele>26</ele>
        <time>2020-06-19T17:55:30Z</time>
      </trkpt>
      <trkpt lat="49.35878" lon="-1.02177">
        <ele>25</ele>
        <time>2020-06-19T17:56:31Z</time>
      </trkpt>
      <trkpt lat="49.35861" lon="-1.02035">
        <ele>24</ele>
        <time>2020-06-19T17:57:46Z</time>
      </trkpt>
      <trkpt lat="49.3578" lon="-1.02008">
        <ele>24</ele>
        <time>2020-06-19T17:58:53Z</time>
      </trkpt>
      <trkpt lat="49.35727" lon="-1.02161">
        <ele>25</ele>
        <time>2020-06-19T18:00:23Z</time>
      </trkpt>
      <trkpt lat="49.3567" lon="-1.02259">
        <ele>26</ele>
        <time>2020-06-19T18:01:32Z</time>
      </trkpt>
      <trkpt lat="49.35627" lon="-1.02378">
        <ele>28</ele>
        <time>2020-06-19T18:02:43Z</time>
      </trkpt>
      <trkpt lat="49.35481" lon="-1.02609">
        <ele>29</ele>
        <time>2020-06-19T18:05:30Z</time>
      </trkpt>
      <trkpt lat="49.354" lon="-1.02778">
        <ele>31</ele>
        <time>2020-06-19T18:07:20Z</time>
      </trkpt>
      <trkpt lat="49.35321" lon="-1.03047">
        <ele>32</ele>
        <time>2020-06-19T18:09:54Z</time>
      </trkpt>
      <trkpt lat="49.35258" lon="-1.03249">
        <ele>33</ele>
        <time>2020-06-19T18:11:51Z</time>
      </trkpt>
      <trkpt lat="49.35213" lon="-1.03296">
        <ele>32</ele>
        <time>2020-06-19T18:12:34Z</time>
      </trkpt>
      <trkpt lat="49.35173" lon="-1.03347">
        <ele>32</ele>
        <time>2020-06-19T18:13:16Z</time>
      </trkpt>
      <trkpt lat="49.35134" lon="-1.0344">
        <ele>33</ele>
        <time>2020-06-19T18:14:13Z</time>
      </trkpt>
      <trkpt lat="49.35051" lon="-1.03621">
        <ele>34</ele>
        <time>2020-06-19T18:16:09Z</time>
      </trkpt>
      <trkpt lat="49.35" lon="-1.03718">
        <ele>34</ele>
        <time>2020-06-19T18:17:14Z</time>
      </trkpt>
      <trkpt lat="49.34967" lon="-1.03848">
        <ele>33</ele>
        <time>2020-06-19T18:18:27Z</time>
      </trkpt>
      <trkpt lat="49.34883" lon="-1.04016">
        <ele>33</ele>
        <time>2020-06-19T18:20:17Z</time>
      </trkpt>
      <trkpt lat="49.34839" lon="-1.04128">
        <ele>34</ele>
        <time>2020-06-19T18:21:25Z</time>
      </trkpt>
      <trkpt lat="49.34657" lon="-1.04088">
        <ele>33</ele>
        <time>2020-06-19T18:23:53Z</time>
      </trkpt>
      <trkpt lat="49.34511" lon="-1.04074">
        <ele>36</ele>
        <time>2020-06-19T18:25:50Z</time>
      </trkpt>
      <trkpt lat="49.34386" lon="-1.04034">
        <ele>36</ele>
        <time>2020-06-19T18:27:32Z</time>
      </trkpt>
      <trkpt lat="49.34282" lon="-1.04029">
        <ele>36</ele>
        <time>2020-06-19T18:28:55Z</time>
      </trkpt>
      <trkpt lat="49.34226" lon="-1.04029">
        <ele>35</ele>
        <time>2020-06-19T18:29:40Z</time>
      </trkpt>
      <trkpt lat="49.34035" lon="-1.04068">
        <ele>35</ele>
        <time>2020-06-19T18:32:14Z</time>
      </trkpt>
      <trkpt lat="49.33967" lon="-1.04086">
        <ele>33</ele>
        <time>2020-06-19T18:33:10Z</time>
      </trkpt>
      <trkpt lat="49.33904" lon="-1.04344">
        <ele>29</ele>
        <time>2020-06-19T18:35:33Z</time>
      </trkpt>
      <trkpt lat="49.33875" lon="-1.04592">
        <ele>30</ele>
        <time>2020-06-19T18:37:45Z</time>
      </trkpt>
      <trkpt lat="49.33849" lon="-1.04799">
        <ele>30</ele>
        <time>2020-06-19T18:39:35Z</time>
      </trkpt>
      <trkpt lat="49.33802" lon="-1.04936">
        <ele>29</ele>
        <time>2020-06-19T18:40:56Z</time>
      </trkpt>
      <trkpt lat="49.3375" lon="-1.05088">
        <ele>26</ele>
        <time>2020-06-19T18:42:25Z</time>
      </trkpt>
      <trkpt lat="49.3373" lon="-1.05142">
        <ele>25</ele>
        <time>2020-06-19T18:42:58Z</time>
      </trkpt>
      <trkpt lat="49.33584" lon="-1.04963">
        <ele>17</ele>
        <time>2020-06-19T18:45:27Z</time>
      </trkpt>
      <trkpt lat="49.33518" lon="-1.04832">
        <ele>14</ele>
        <time>2020-06-19T18:46:54Z</time>
      </trkpt>
      <trkpt lat="49.33457" lon="-1.04695">
        <ele>13</ele>
        <time>2020-06-19T18:48:20Z</time>
      </trkpt>
      <trkpt lat="49.33386" lon="-1.04785">
        <ele>12</ele>
        <time>2020-06-19T18:49:34Z</time>
      </trkpt>
      <trkpt lat="49.3333" lon="-1.0485">
        <ele>11</ele>
        <time>2020-06-19T18:50:30Z</time>
      </trkpt>
      <trkpt lat="49.33286" lon="-1.04868">
        <ele>10</ele>
        <time>2020-06-19T18:51:07Z</time>
      </trkpt>
      <trkpt lat="49.33195" lon="-1.04954">
        <ele>9</ele>
        <time>2020-06-19T18:52:32Z</time>
      </trkpt>
      <trkpt lat="49.3319" lon="-1.04927">
        <ele>9</ele>
        <time>2020-06-19T18:52:47Z</time>
      </trkpt>
      <trkpt lat="49.33122" lon="-1.04884">
        <ele>9</ele>
        <time>2020-06-19T18:53:46Z</time>
      </trkpt>
      <trkpt lat="49.33002" lon="-1.04902">
        <ele>4</ele>
        <time>2020-06-19T18:55:22Z</time>
      </trkpt>
      <trkpt lat="49.32949" lon="-1.04904">
        <ele>2</ele>
        <time>2020-06-19T18:56:05Z</time>
      </trkpt>
      <trkpt lat="49.32929" lon="-1.0487">
        <ele>2</ele>
        <time>2020-06-19T18:56:29Z</time>
      </trkpt>
      <trkpt lat="49.32917" lon="-1.04781">
        <ele>2</ele>
        <time>2020-06-19T18:57:16Z</time>
      </trkpt>
      <trkpt lat="49.32845" lon="-1.04565">
        <ele>6</ele>
        <time>2020-06-19T18:59:23Z</time>
      </trkpt>
      <trkpt lat="49.32622" lon="-1.04538">
        <ele>2</ele>
        <time>2020-06-19T19:02:22Z</time>
      </trkpt>
      <trkpt lat="49.32601" lon="-1.04451">
        <ele>3</ele>
        <time>2020-06-19T19:03:10Z</time>
      </trkpt>
      <trkpt lat="49.3262" lon="-1.04328">
        <ele>3</ele>
        <time>2020-06-19T19:04:16Z</time>
      </trkpt>
      <trkpt lat="49.3266" lon="-1.04132">
        <ele>2</ele>
        <time>2020-06-19T19:06:03Z</time>
      </trkpt>
      <trkpt lat="49.32694" lon="-1.04086">
        <ele>2</ele>
        <time>2020-06-19T19:06:40Z</time>
      </trkpt>
      <trkpt lat="49.327" lon="-1.03933">
        <ele>1</ele>
        <time>2020-06-19T19:08:00Z</time>
      </trkpt>
      <trkpt lat="49.32697" lon="-1.03843">
        <ele>1</ele>
        <time>2020-06-19T19:08:47Z</time>
      </trkpt>
      <trkpt lat="49.32705" lon="-1.03769">
        <ele>1</ele>
        <time>2020-06-19T19:09:26Z</time>
      </trkpt>
      <trkpt lat="49.32663" lon="-1.03652">
        <ele>1</ele>
        <time>2020-06-19T19:10:35Z</time>
      </trkpt>
      <trkpt lat="49.32642" lon="-1.03547">
        <ele>1</ele>
        <time>2020-06-19T19:11:33Z</time>
      </trkpt>
      <trkpt lat="49.32656" lon="-1.03327">
        <ele>2</ele>
        <time>2020-06-19T19:13:28Z</time>
      </trkpt>
      <trkpt lat="49.32663" lon="-1.03206">
        <ele>2</ele>
        <time>2020-06-19T19:14:31Z</time>
      </trkpt>
      <trkpt lat="49.32641" lon="-1.03025">
        <ele>4</ele>
        <time>2020-06-19T19:16:08Z</time>
      </trkpt>
      <trkpt lat="49.32652" lon="-1.02982">
        <ele>4</ele>
        <time>2020-06-19T19:16:32Z</time>
      </trkpt>
      <trkpt lat="49.32697" lon="-1.02796">
        <ele>3</ele>
        <time>2020-06-19T19:18:15Z</time>
      </trkpt>
      <trkpt lat="49.33083" lon="-1.02852">
        <ele>15</ele>
        <time>2020-06-19T19:23:26Z</time>
      </trkpt>
      <trkpt lat="49.33079" lon="-1.02594">
        <ele>12</ele>
        <time>2020-06-19T19:25:40Z</time>
      </trkpt>
      <trkpt lat="49.331" lon="-1.02354">
        <ele>7</ele>
        <time>2020-06-19T19:27:47Z</time>
      </trkpt>
      <trkpt lat="49.33095" lon="-1.02228">
        <ele>9</ele>
        <time>2020-06-19T19:28:52Z</time>
      </trkpt>
      <trkpt lat="49.33092" lon="-1.0191">
        <ele>7</ele>
        <time>2020-06-19T19:31:38Z</time>
      </trkpt>
      <trkpt lat="49.32898" lon="-1.01918">
        <ele>2</ele>
        <time>2020-06-19T19:34:14Z</time>
      </trkpt>
      <trkpt lat="49.32902" lon="-1.01806">
        <ele>3</ele>
        <time>2020-06-19T19:35:12Z</time>
      </trkpt>
      <trkpt lat="49.32914" lon="-1.01744">
        <ele>5</ele>
        <time>2020-06-19T19:35:46Z</time>
      </trkpt>
      <trkpt lat="49.32777" lon="-1.01699">
        <ele>2</ele>
        <time>2020-06-19T19:37:38Z</time>
      </trkpt>
      <trkpt lat="49.32729" lon="-1.01697">
        <ele>1</ele>
        <time>2020-06-19T19:38:17Z</time>
      </trkpt>
      <trkpt lat="49.32692" lon="-1.01582">
        <ele>2</ele>
        <time>2020-06-19T19:39:24Z</time>
      </trkpt>
      <trkpt lat="49.32677" lon="-1.01391">
        <ele>1</ele>
        <time>2020-06-19T19:41:04Z</time>
      </trkpt>
      <trkpt lat="49.32677" lon="-1.01165">
        <ele>3</ele>
        <time>2020-06-19T19:43:02Z</time>
      </trkpt>
      <trkpt lat="49.32704" lon="-1.01104">
        <ele>3</ele>
        <time>2020-06-19T19:43:40Z</time>
      </trkpt>
      <trkpt lat="49.32744" lon="-1.01021">
        <ele>2</ele>
        <time>2020-06-19T19:44:34Z</time>
      </trkpt>
      <trkpt lat="49.32835" lon="-1.0083">
        <ele>2</ele>
        <time>2020-06-19T19:46:38Z</time>
      </trkpt>
      <trkpt lat="49.32868" lon="-1.00748">
        <ele>3</ele>
        <time>2020-06-19T19:47:28Z</time>
      </trkpt>
      <trkpt lat="49.32943" lon="-1.00443">
        <ele>3</ele>
        <time>2020-06-19T19:50:18Z</time>
      </trkpt>
      <trkpt lat="49.33003" lon="-1.00458">
        <ele>6</ele>
        <time>2020-06-19T19:51:07Z</time>
      </trkpt>
      <trkpt lat="49.33043" lon="-1.00279">
        <ele>6</ele>
        <time>2020-06-19T19:52:46Z</time>
      </trkpt>
      <trkpt lat="49.32995" lon="-1.0014">
        <ele>4</ele>
        <time>2020-06-19T19:54:08Z</time>
      </trkpt>
      <trkpt lat="49.32906" lon="-1.00007">
        <ele>2</ele>
        <time>2020-06-19T19:55:47Z</time>
      </trkpt>
      <trkpt lat="49.32885" lon="-0.99945">
        <ele>2</ele>
        <time>2020-06-19T19:56:24Z</time>
      </trkpt>
      <trkpt lat="49.32944" lon="-0.99666">
        <ele>3</ele>
        <time>2020-06-19T19:58:57Z</time>
      </trkpt>
      <trkpt lat="49.32992" lon="-0.99556">
        <ele>3</ele>
        <time>2020-06-19T20:00:06Z</time>
      </trkpt>
      <trkpt lat="49.3305" lon="-0.9942">
        <ele>3</ele>
        <time>2020-06-19T20:01:31Z</time>
      </trkpt>
      <trkpt lat="49.33182" lon="-0.99195">
        <ele>5</ele>
        <time>2020-06-19T20:04:09Z</time>
      </trkpt>
      <trkpt lat="49.33298" lon="-0.9904">
        <ele>5</ele>
        <time>2020-06-19T20:06:12Z</time>
      </trkpt>
      <trkpt lat="49.33389" lon="-0.98939">
        <ele>5</ele>
        <time>2020-06-19T20:07:42Z</time>
      </trkpt>
      <trkpt lat="49.33394" lon="-0.98895">
        <ele>5</ele>
        <time>2020-06-19T20:08:05Z</time>
      </trkpt>
      <trkpt lat="49.33403" lon="-0.9885">
        <ele>6</ele>
        <time>2020-06-19T20:08:29Z</time>
      </trkpt>
      <trkpt lat="49.33397" lon="-0.9874">
        <ele>8</ele>
        <time>2020-06-19T20:09:27Z</time>
      </trkpt>
      <trkpt lat="49.33372" lon="-0.98359">
        <ele>11</ele>
        <time>2020-06-19T20:12:47Z</time>
      </trkpt>
      <trkpt lat="49.33143" lon="-0.98372">
        <ele>7</ele>
        <time>2020-06-19T20:15:50Z</time>
      </trkpt>
      <trkpt lat="49.33129" lon="-0.98258">
        <ele>7</ele>
        <time>2020-06-19T20:16:51Z</time>
      </trkpt>
      <trkpt lat="49.3309" lon="-0.98116">
        <ele>11</ele>
        <time>2020-06-19T20:18:11Z</time>
      </trkpt>
      <trkpt lat="49.32948" lon="-0.9817">
        <ele>9</ele>
        <time>2020-06-19T20:20:08Z</time>
      </trkpt>
      <trkpt lat="49.32752" lon="-0.98251">
        <ele>7</ele>
        <time>2020-06-19T20:22:51Z</time>
      </trkpt>
      <trkpt lat="49.32671" lon="-0.98302">
        <ele>6</ele>
        <time>2020-06-19T20:24:01Z</time>
      </trkpt>
      <trkpt lat="49.32604" lon="-0.98377">
        <ele>5</ele>
        <time>2020-06-19T20:25:07Z</time>
      </trkpt>
      <trkpt lat="49.32437" lon="-0.98542">
        <ele>4</ele>
        <time>2020-06-19T20:27:46Z</time>
      </trkpt>
      <trkpt lat="49.32327" lon="-0.98648">
        <ele>3</ele>
        <time>2020-06-19T20:29:31Z</time>
      </trkpt>
      <trkpt lat="49.32287" lon="-0.98672">
        <ele>2</ele>
        <time>2020-06-19T20:30:05Z</time>
      </trkpt>
      <trkpt lat="49.32258" lon="-0.98672">
        <ele>1</ele>
        <time>2020-06-19T20:30:28Z</time>
      </trkpt>
      <trkpt lat="49.32242" lon="-0.98749">
        <ele>2</ele>
        <time>2020-06-19T20:31:10Z</time>
      </trkpt>
      <trkpt lat="49.32253" lon="-0.98834">
        <ele>1</ele>
        <time>2020-06-19T20:31:56Z</time>
      </trkpt>
      <trkpt lat="49.32284" lon="-0.98926">
        <ele>1</ele>
        <time>2020-06-19T20:32:50Z</time>
      </trkpt>
      <trkpt lat="49.32254" lon="-0.9941">
        <ele>1</ele>
        <time>2020-06-19T20:37:03Z</time>
      </trkpt>
      <trkpt lat="49.32109" lon="-0.99361">
        <ele>1</ele>
        <time>2020-06-19T20:39:02Z</time>
      </trkpt>
      <trkpt lat="49.32099" lon="-0.99417">
        <ele>1</ele>
        <time>2020-06-19T20:39:32Z</time>
      </trkpt>
      <trkpt lat="49.31939" lon="-0.99473">
        <ele>1</ele>
        <time>2020-06-19T20:41:44Z</time>
      </trkpt>
      <trkpt lat="49.31923" lon="-0.99704">
        <ele>1</ele>
        <time>2020-06-19T20:43:45Z</time>
      </trkpt>
      <trkpt lat="49.31892" lon="-0.99666">
        <ele>1</ele>
        <time>2020-06-19T20:44:17Z</time>
      </trkpt>
      <trkpt lat="49.31873" lon="-0.9966">
        <ele>1</ele>
        <time>2020-06-19T20:44:32Z</time>
      </trkpt>
      <trkpt lat="49.31835" lon="-0.99606">
        <ele>1.2</ele>
        <time>2020-06-19T20:45:14Z</time>
      </trkpt>
      <trkpt lat="49.31742" lon="-0.99644">
        <ele>1.6</ele>
        <time>2020-06-19T20:46:31Z</time>
      </trkpt>
      <trkpt lat="49.3153" lon="-0.99752">
        <ele>1.1</ele>
        <time>2020-06-19T20:49:30Z</time>
      </trkpt>
      <trkpt lat="49.31049" lon="-0.98294">
        <ele>1.3</ele>
        <time>2020-06-19T21:03:43Z</time>
      </trkpt>
      <trkpt lat="49.30765" lon="-0.98515">
        <ele>1</ele>
        <time>2020-06-19T21:07:58Z</time>
      </trkpt>
      <trkpt lat="49.31259" lon="-0.99897">
        <ele>1</ele>
        <time>2020-06-19T21:21:40Z</time>
      </trkpt>
      <trkpt lat="49.31081" lon="-0.99989">
        <ele>1</ele>
        <time>2020-06-19T21:24:11Z</time>
      </trkpt>
      <trkpt lat="49.30973" lon="-1.00036">
        <ele>2</ele>
        <time>2020-06-19T21:25:41Z</time>
      </trkpt>
      <trkpt lat="49.30893" lon="-1.00081">
        <ele>2</ele>
        <time>2020-06-19T21:26:49Z</time>
      </trkpt>
      <trkpt lat="49.30756" lon="-1.00162">
        <ele>1</ele>
        <time>2020-06-19T21:28:47Z</time>
      </trkpt>
      <trkpt lat="49.30723" lon="-1.00128">
        <ele>2</ele>
        <time>2020-06-19T21:29:18Z</time>
      </trkpt>
      <trkpt lat="49.30702" lon="-1.00077">
        <ele>2</ele>
        <time>2020-06-19T21:29:50Z</time>
      </trkpt>
      <trkpt lat="49.3062" lon="-1.00102">
        <ele>4</ele>
        <time>2020-06-19T21:30:57Z</time>
      </trkpt>
      <trkpt lat="49.30602" lon="-1.00079">
        <ele>3</ele>
        <time>2020-06-19T21:31:16Z</time>
      </trkpt>
      <trkpt lat="49.30594" lon="-1.00028">
        <ele>3</ele>
        <time>2020-06-19T21:31:43Z</time>
      </trkpt>
      <trkpt lat="49.30333" lon="-1.00146">
        <ele>10</ele>
        <time>2020-06-19T21:35:21Z</time>
      </trkpt>
      <trkpt lat="49.30247" lon="-1.0018">
        <ele>10</ele>
        <time>2020-06-19T21:36:32Z</time>
      </trkpt>
      <trkpt lat="49.30227" lon="-1.0018">
        <ele>10</ele>
        <time>2020-06-19T21:36:48Z</time>
      </trkpt>
      <trkpt lat="49.30181" lon="-1.00048">
        <ele>11</ele>
        <time>2020-06-19T21:38:06Z</time>
      </trkpt>
      <trkpt lat="49.30149" lon="-1.00021">
        <ele>12</ele>
        <time>2020-06-19T21:38:35Z</time>
      </trkpt>
      <trkpt lat="49.29922" lon="-1.00148">
        <ele>15</ele>
        <time>2020-06-19T21:41:49Z</time>
      </trkpt>
      <trkpt lat="49.29734" lon="-1.0022">
        <ele>12</ele>
        <time>2020-06-19T21:44:24Z</time>
      </trkpt>
      <trkpt lat="49.29772" lon="-1.00407">
        <ele>12</ele>
        <time>2020-06-19T21:46:06Z</time>
      </trkpt>
      <trkpt lat="49.2978" lon="-1.00575">
        <ele>12</ele>
        <time>2020-06-19T21:47:34Z</time>
      </trkpt>
      <trkpt lat="49.29767" lon="-1.00757">
        <ele>8</ele>
        <time>2020-06-19T21:49:10Z</time>
      </trkpt>
      <trkpt lat="49.29676" lon="-1.00761">
        <ele>10</ele>
        <time>2020-06-19T21:50:23Z</time>
      </trkpt>
      <trkpt lat="49.29625" lon="-1.00765">
        <ele>10</ele>
        <time>2020-06-19T21:51:04Z</time>
      </trkpt>
      <trkpt lat="49.29534" lon="-1.00846">
        <ele>7</ele>
        <time>2020-06-19T21:52:28Z</time>
      </trkpt>
      <trkpt lat="49.29459" lon="-1.0088">
        <ele>7</ele>
        <time>2020-06-19T21:53:30Z</time>
      </trkpt>
      <trkpt lat="49.29384" lon="-1.0086">
        <ele>10</ele>
        <time>2020-06-19T21:54:31Z</time>
      </trkpt>
      <trkpt lat="49.29166" lon="-1.00757">
        <ele>13</ele>
        <time>2020-06-19T21:57:34Z</time>
      </trkpt>
      <trkpt lat="49.28983" lon="-1.00608">
        <ele>13</ele>
        <time>2020-06-19T22:00:20Z</time>
      </trkpt>
      <trkpt lat="49.2884" lon="-1.00415">
        <ele>14</ele>
        <time>2020-06-19T22:02:52Z</time>
      </trkpt>
      <trkpt lat="49.28791" lon="-1.00277">
        <ele>14</ele>
        <time>2020-06-19T22:04:15Z</time>
      </trkpt>
      <trkpt lat="49.28773" lon="-1.00209">
        <ele>14</ele>
        <time>2020-06-19T22:04:53Z</time>
      </trkpt>
      <trkpt lat="49.28687" lon="-1.00249">
        <ele>15</ele>
        <time>2020-06-19T22:06:05Z</time>
      </trkpt>
      <trkpt lat="49.2857" lon="-1.00377">
        <ele>12</ele>
        <time>2020-06-19T22:08:00Z</time>
      </trkpt>
      <trkpt lat="49.28512" lon="-1.00418">
        <ele>13</ele>
        <time>2020-06-19T22:08:51Z</time>
      </trkpt>
      <trkpt lat="49.28426" lon="-1.00469">
        <ele>13</ele>
        <time>2020-06-19T22:10:05Z</time>
      </trkpt>
      <trkpt lat="49.28409" lon="-1.00539">
        <ele>10</ele>
        <time>2020-06-19T22:10:44Z</time>
      </trkpt>
      <trkpt lat="49.28375" lon="-1.00572">
        <ele>9</ele>
        <time>2020-06-19T22:11:16Z</time>
      </trkpt>
      <trkpt lat="49.28343" lon="-1.00615">
        <ele>9</ele>
        <time>2020-06-19T22:11:50Z</time>
      </trkpt>
      <trkpt lat="49.28324" lon="-1.00698">
        <ele>9</ele>
        <time>2020-06-19T22:12:36Z</time>
      </trkpt>
      <trkpt lat="49.28271" lon="-1.00748">
        <ele>9</ele>
        <time>2020-06-19T22:13:26Z</time>
      </trkpt>
      <trkpt lat="49.28257" lon="-1.00766">
        <ele>9</ele>
        <time>2020-06-19T22:13:41Z</time>
      </trkpt>
      <trkpt lat="49.28304" lon="-1.00896">
        <ele>8</ele>
        <time>2020-06-19T22:14:58Z</time>
      </trkpt>
      <trkpt lat="49.2831" lon="-1.01032">
        <ele>7</ele>
        <time>2020-06-19T22:16:09Z</time>
      </trkpt>
      <trkpt lat="49.28308" lon="-1.01122">
        <ele>6</ele>
        <time>2020-06-19T22:16:56Z</time>
      </trkpt>
      <trkpt lat="49.28338" lon="-1.01272">
        <ele>6</ele>
        <time>2020-06-19T22:18:18Z</time>
      </trkpt>
      <trkpt lat="49.28337" lon="-1.01308">
        <ele>6</ele>
        <time>2020-06-19T22:18:37Z</time>
      </trkpt>
      <trkpt lat="49.28349" lon="-1.0138">
        <ele>5</ele>
        <time>2020-06-19T22:19:16Z</time>
      </trkpt>
      <trkpt lat="49.28357" lon="-1.01439">
        <ele>6</ele>
        <time>2020-06-19T22:19:47Z</time>
      </trkpt>
      <trkpt lat="49.28335" lon="-1.01553">
        <ele>6</ele>
        <time>2020-06-19T22:20:50Z</time>
      </trkpt>
      <trkpt lat="49.28309" lon="-1.01685">
        <ele>7</ele>
        <time>2020-06-19T22:22:02Z</time>
      </trkpt>
      <trkpt lat="49.28283" lon="-1.01762">
        <ele>10</ele>
        <time>2020-06-19T22:22:47Z</time>
      </trkpt>
      <trkpt lat="49.28289" lon="-1.01826">
        <ele>12</ele>
        <time>2020-06-19T22:23:21Z</time>
      </trkpt>
      <trkpt lat="49.28308" lon="-1.01898">
        <ele>12</ele>
        <time>2020-06-19T22:24:01Z</time>
      </trkpt>
      <trkpt lat="49.28226" lon="-1.01932">
        <ele>13</ele>
        <time>2020-06-19T22:25:09Z</time>
      </trkpt>
      <trkpt lat="49.28193" lon="-1.01981">
        <ele>12</ele>
        <time>2020-06-19T22:25:46Z</time>
      </trkpt>
      <trkpt lat="49.28209" lon="-1.02098">
        <ele>14</ele>
        <time>2020-06-19T22:26:48Z</time>
      </trkpt>
      <trkpt lat="49.28166" lon="-1.02129">
        <ele>14</ele>
        <time>2020-06-19T22:27:27Z</time>
      </trkpt>
      <trkpt lat="49.28049" lon="-1.02136">
        <ele>11</ele>
        <time>2020-06-19T22:29:00Z</time>
      </trkpt>
      <trkpt lat="49.27992" lon="-1.02134">
        <ele>9</ele>
        <time>2020-06-19T22:29:46Z</time>
      </trkpt>
      <trkpt lat="49.27843" lon="-1.02174">
        <ele>9</ele>
        <time>2020-06-19T22:31:47Z</time>
      </trkpt>
      <trkpt lat="49.2775" lon="-1.02201">
        <ele>11</ele>
        <time>2020-06-19T22:33:03Z</time>
      </trkpt>
      <trkpt lat="49.27653" lon="-1.0225">
        <ele>13</ele>
        <time>2020-06-19T22:34:25Z</time>
      </trkpt>
      <trkpt lat="49.27597" lon="-1.0226">
        <ele>15</ele>
        <time>2020-06-19T22:35:10Z</time>
      </trkpt>
      <trkpt lat="49.27521" lon="-1.02206">
        <ele>16</ele>
        <time>2020-06-19T22:36:17Z</time>
      </trkpt>
      <trkpt lat="49.27413" lon="-1.02304">
        <ele>18</ele>
        <time>2020-06-19T22:37:57Z</time>
      </trkpt>
      <trkpt lat="49.27095" lon="-1.02596">
        <ele>31</ele>
        <time>2020-06-19T22:42:54Z</time>
      </trkpt>
      <trkpt lat="49.2728" lon="-1.02973">
        <ele>16</ele>
        <time>2020-06-19T22:47:01Z</time>
      </trkpt>
      <trkpt lat="49.27233" lon="-1.02988">
        <ele>17</ele>
        <time>2020-06-19T22:47:39Z</time>
      </trkpt>
      <trkpt lat="49.27178" lon="-1.0298">
        <ele>19</ele>
        <time>2020-06-19T22:48:23Z</time>
      </trkpt>
      <trkpt lat="49.27068" lon="-1.03042">
        <ele>18</ele>
        <time>2020-06-19T22:49:57Z</time>
      </trkpt>
      <trkpt lat="49.26979" lon="-1.03087">
        <ele>19</ele>
        <time>2020-06-19T22:51:12Z</time>
      </trkpt>
      <trkpt lat="49.26873" lon="-1.03119">
        <ele>21</ele>
        <time>2020-06-19T22:52:39Z</time>
      </trkpt>
      <trkpt lat="49.26795" lon="-1.03146">
        <ele>22</ele>
        <time>2020-06-19T22:53:43Z</time>
      </trkpt>
      <trkpt lat="49.26743" lon="-1.03127">
        <ele>23</ele>
        <time>2020-06-19T22:54:25Z</time>
      </trkpt>
      <trkpt lat="49.26735" lon="-1.03264">
        <ele>24</ele>
        <time>2020-06-19T22:55:37Z</time>
      </trkpt>
      <trkpt lat="49.26765" lon="-1.03451">
        <ele>30</ele>
        <time>2020-06-19T22:57:18Z</time>
      </trkpt>
      <trkpt lat="49.26777" lon="-1.03563">
        <ele>31</ele>
        <time>2020-06-19T22:58:17Z</time>
      </trkpt>
      <trkpt lat="49.26735" lon="-1.03733">
        <ele>32</ele>
        <time>2020-06-19T22:59:52Z</time>
      </trkpt>
      <trkpt lat="49.26712" lon="-1.04012">
        <ele>34</ele>
        <time>2020-06-19T23:02:19Z</time>
      </trkpt>
      <trkpt lat="49.26694" lon="-1.04281">
        <ele>36</ele>
        <time>2020-06-19T23:04:40Z</time>
      </trkpt>
      <trkpt lat="49.26684" lon="-1.04482">
        <ele>37</ele>
        <time>2020-06-19T23:06:26Z</time>
      </trkpt>
      <trkpt lat="49.26728" lon="-1.04583">
        <ele>39</ele>
        <time>2020-06-19T23:07:29Z</time>
      </trkpt>
      <trkpt lat="49.26754" lon="-1.04667">
        <ele>41</ele>
        <time>2020-06-19T23:08:18Z</time>
      </trkpt>
      <trkpt lat="49.26893" lon="-1.04844">
        <ele>42</ele>
        <time>2020-06-19T23:10:42Z</time>
      </trkpt>
      <trkpt lat="49.26989" lon="-1.04945">
        <ele>42</ele>
        <time>2020-06-19T23:12:16Z</time>
      </trkpt>
      <trkpt lat="49.27029" lon="-1.0503">
        <ele>40</ele>
        <time>2020-06-19T23:13:10Z</time>
      </trkpt>
      <trkpt lat="49.27106" lon="-1.05021">
        <ele>39</ele>
        <time>2020-06-19T23:14:12Z</time>
      </trkpt>
      <trkpt lat="49.27161" lon="-1.05203">
        <ele>37</ele>
        <time>2020-06-19T23:15:57Z</time>
      </trkpt>
      <trkpt lat="49.27219" lon="-1.05409">
        <ele>37</ele>
        <time>2020-06-19T23:17:54Z</time>
      </trkpt>
      <trkpt lat="49.27205" lon="-1.05635">
        <ele>39</ele>
        <time>2020-06-19T23:19:53Z</time>
      </trkpt>
      <trkpt lat="49.27159" lon="-1.0582">
        <ele>42</ele>
        <time>2020-06-19T23:21:36Z</time>
      </trkpt>
      <trkpt lat="49.27122" lon="-1.05896">
        <ele>41</ele>
        <time>2020-06-19T23:22:26Z</time>
      </trkpt>
      <trkpt lat="49.2705" lon="-1.06041">
        <ele>42</ele>
        <time>2020-06-19T23:24:01Z</time>
      </trkpt>
      <trkpt lat="49.27016" lon="-1.0612">
        <ele>42</ele>
        <time>2020-06-19T23:24:50Z</time>
      </trkpt>
      <trkpt lat="49.26975" lon="-1.06263">
        <ele>44</ele>
        <time>2020-06-19T23:26:12Z</time>
      </trkpt>
      <trkpt lat="49.26993" lon="-1.0653">
        <ele>44</ele>
        <time>2020-06-19T23:28:32Z</time>
      </trkpt>
      <trkpt lat="49.26967" lon="-1.06739">
        <ele>45</ele>
        <time>2020-06-19T23:30:23Z</time>
      </trkpt>
      <trkpt lat="49.26949" lon="-1.06887">
        <ele>44</ele>
        <time>2020-06-19T23:31:42Z</time>
      </trkpt>
      <trkpt lat="49.26941" lon="-1.07109">
        <ele>44</ele>
        <time>2020-06-19T23:33:38Z</time>
      </trkpt>
      <trkpt lat="49.26946" lon="-1.07286">
        <ele>43</ele>
        <time>2020-06-19T23:35:11Z</time>
      </trkpt>
      <trkpt lat="49.2678" lon="-1.07462">
        <ele>38</ele>
        <time>2020-06-19T23:37:52Z</time>
      </trkpt>
      <trkpt lat="49.26596" lon="-1.07876">
        <ele>40</ele>
        <time>2020-06-19T23:42:14Z</time>
      </trkpt>
      <trkpt lat="49.26638" lon="-1.07959">
        <ele>39</ele>
        <time>2020-06-19T23:43:09Z</time>
      </trkpt>
      <trkpt lat="49.2644" lon="-1.08152">
        <ele>38</ele>
        <time>2020-06-19T23:46:17Z</time>
      </trkpt>
      <trkpt lat="49.26484" lon="-1.08303">
        <ele>34</ele>
        <time>2020-06-19T23:47:43Z</time>
      </trkpt>
      <trkpt lat="49.26478" lon="-1.0839">
        <ele>32</ele>
        <time>2020-06-19T23:48:29Z</time>
      </trkpt>
      <trkpt lat="49.26422" lon="-1.08587">
        <ele>25</ele>
        <time>2020-06-19T23:50:21Z</time>
      </trkpt>
      <trkpt lat="49.26371" lon="-1.08722">
        <ele>22</ele>
        <time>2020-06-19T23:51:43Z</time>
      </trkpt>
      <trkpt lat="49.26313" lon="-1.08868">
        <ele>19</ele>
        <time>2020-06-19T23:53:12Z</time>
      </trkpt>
      <trkpt lat="49.26233" lon="-1.08993">
        <ele>17</ele>
        <time>2020-06-19T23:54:44Z</time>
      </trkpt>
      <trkpt lat="49.262" lon="-1.09122">
        <ele>11</ele>
        <time>2020-06-19T23:55:56Z</time>
      </trkpt>
      <trkpt lat="49.2616" lon="-1.09202">
        <ele>7</ele>
        <time>2020-06-19T23:56:49Z</time>
      </trkpt>
      <trkpt lat="49.26098" lon="-1.0922">
        <ele>6</ele>
        <time>2020-06-19T23:57:39Z</time>
      </trkpt>
      <trkpt lat="49.26072" lon="-1.09281">
        <ele>5</ele>
        <time>2020-06-19T23:58:17Z</time>
      </trkpt>
      <trkpt lat="49.26068" lon="-1.0933">
        <ele>4</ele>
        <time>2020-06-19T23:58:43Z</time>
      </trkpt>
      <trkpt lat="49.26037" lon="-1.09426">
        <ele>3</ele>
        <time>2020-06-19T23:59:39Z</time>
      </trkpt>
      <trkpt lat="49.25998" lon="-1.09514">
        <ele>1</ele>
        <time>2020-06-20T00:00:35Z</time>
      </trkpt>
      <trkpt lat="49.25899" lon="-1.09718">
        <ele>1</ele>
        <time>2020-06-20T00:02:47Z</time>
      </trkpt>
      <trkpt lat="49.25778" lon="-1.10001">
        <ele>3</ele>
        <time>2020-06-20T00:05:44Z</time>
      </trkpt>
      <trkpt lat="49.26114" lon="-1.10333">
        <ele>3</ele>
        <time>2020-06-20T00:11:04Z</time>
      </trkpt>
      <trkpt lat="49.26442" lon="-1.10671">
        <ele>3</ele>
        <time>2020-06-20T00:16:21Z</time>
      </trkpt>
      <trkpt lat="49.26582" lon="-1.10799">
        <ele>4</ele>
        <time>2020-06-20T00:18:31Z</time>
      </trkpt>
      <trkpt lat="49.26629" lon="-1.10772">
        <ele>3</ele>
        <time>2020-06-20T00:19:12Z</time>
      </trkpt>
      <trkpt lat="49.26701" lon="-1.10754">
        <ele>3</ele>
        <time>2020-06-20T00:20:10Z</time>
      </trkpt>
      <trkpt lat="49.26728" lon="-1.10811">
        <ele>2</ele>
        <time>2020-06-20T00:20:47Z</time>
      </trkpt>
      <trkpt lat="49.26643" lon="-1.10947">
        <ele>2</ele>
        <time>2020-06-20T00:22:25Z</time>
      </trkpt>
      <trkpt lat="49.26496" lon="-1.11248">
        <ele>2.8</ele>
        <time>2020-06-20T00:25:42Z</time>
      </trkpt>
      <trkpt lat="49.26389" lon="-1.11461">
        <ele>2</ele>
        <time>2020-06-20T00:28:02Z</time>
      </trkpt>
      <trkpt lat="49.26345" lon="-1.11643">
        <ele>2</ele>
        <time>2020-06-20T00:29:43Z</time>
      </trkpt>
      <trkpt lat="49.26329" lon="-1.11838">
        <ele>2</ele>
        <time>2020-06-20T00:31:26Z</time>
      </trkpt>
      <trkpt lat="49.26264" lon="-1.1206">
        <ele>1</ele>
        <time>2020-06-20T00:33:33Z</time>
      </trkpt>
      <trkpt lat="49.26157" lon="-1.12219">
        <ele>1</ele>
        <time>2020-06-20T00:35:33Z</time>
      </trkpt>
      <trkpt lat="49.26005" lon="-1.12426">
        <ele>3</ele>
        <time>2020-06-20T00:38:15Z</time>
      </trkpt>
      <trkpt lat="49.25948" lon="-1.12558">
        <ele>2</ele>
        <time>2020-06-20T00:39:38Z</time>
      </trkpt>
      <trkpt lat="49.25934" lon="-1.12706">
        <ele>1</ele>
        <time>2020-06-20T00:40:56Z</time>
      </trkpt>
      <trkpt lat="49.25912" lon="-1.13013">
        <ele>1</ele>
        <time>2020-06-20T00:43:38Z</time>
      </trkpt>
      <trkpt lat="49.25895" lon="-1.13134">
        <ele>1</ele>
        <time>2020-06-20T00:44:42Z</time>
      </trkpt>
      <trkpt lat="49.25865" lon="-1.13227">
        <ele>3</ele>
        <time>2020-06-20T00:45:37Z</time>
      </trkpt>
      <trkpt lat="49.25895" lon="-1.13355">
        <ele>4</ele>
        <time>2020-06-20T00:46:48Z</time>
      </trkpt>
      <trkpt lat="49.25935" lon="-1.13419">
        <ele>6</ele>
        <time>2020-06-20T00:47:34Z</time>
      </trkpt>
      <trkpt lat="49.25973" lon="-1.13395">
        <ele>5</ele>
        <time>2020-06-20T00:48:07Z</time>
      </trkpt>
      <trkpt lat="49.26055" lon="-1.13433">
        <ele>4</ele>
        <time>2020-06-20T00:49:15Z</time>
      </trkpt>
      <trkpt lat="49.26131" lon="-1.13552">
        <ele>4</ele>
        <time>2020-06-20T00:50:42Z</time>
      </trkpt>
      <trkpt lat="49.26192" lon="-1.13704">
        <ele>4</ele>
        <time>2020-06-20T00:52:16Z</time>
      </trkpt>
      <trkpt lat="49.26277" lon="-1.1377">
        <ele>4</ele>
        <time>2020-06-20T00:53:32Z</time>
      </trkpt>
      <trkpt lat="49.26369" lon="-1.13792">
        <ele>3</ele>
        <time>2020-06-20T00:54:47Z</time>
      </trkpt>
      <trkpt lat="49.26698" lon="-1.13897">
        <ele>13</ele>
        <time>2020-06-20T00:59:16Z</time>
      </trkpt>
      <trkpt lat="49.26578" lon="-1.14357">
        <ele>26</ele>
        <time>2020-06-20T01:03:34Z</time>
      </trkpt>
      <trkpt lat="49.26744" lon="-1.14489">
        <ele>17</ele>
        <time>2020-06-20T01:06:04Z</time>
      </trkpt>
      <trkpt lat="49.269" lon="-1.14606">
        <ele>12</ele>
        <time>2020-06-20T01:08:23Z</time>
      </trkpt>
      <trkpt lat="49.26761" lon="-1.15196">
        <ele>31</ele>
        <time>2020-06-20T01:13:51Z</time>
      </trkpt>
      <trkpt lat="49.26664" lon="-1.15156">
        <ele>31</ele>
        <time>2020-06-20T01:15:11Z</time>
      </trkpt>
      <trkpt lat="49.26584" lon="-1.15348">
        <ele>32</ele>
        <time>2020-06-20T01:17:10Z</time>
      </trkpt>
    </trkseg>
  </trk>
</gpx>